Station: MOOMBA AP

  Atmospheric Gas Attenuation - ITU Rec 676-11   --------------- db/100km ---------------
Date Time Temp RH % AH g/m3 Dew Point Wind Direction Speed kph Gust kph Barometer mB Rainfall Since 9am 24GHz 47GHz 76GHz 122GHz 134GHz 241GHz
16 18:10 28.1 12 3.28 -3.9 19 22 1012 0 8.0 15.6 17.4 44.7 29.5 97.9
16 18:00 28.1 11 3.01 -5.1 20 26 1012.2 0 7.4 15.3 16.7 42.8 27.1 89.4
16 17:50 28.4 11 3.06 -4.9 20 22 1012.1 0 7.5 15.3 16.8 43.0 27.4 90.7
16 17:40 28.1 11 3.01 -5.1 20 28 1012.2 0 7.4 15.3 16.7 42.8 27.1 89.4
16 17:30 27.7 12 3.21 -4.3 19 26 1012.1 0 7.8 15.6 17.3 44.5 29.0 96.1
16 17:20 27.7 12 3.21 -4.3 19 22 1012.1 0 7.8 15.6 17.3 44.5 29.0 96.1
16 17:10 28.5 12 3.35 -3.6 17 19 1012.1 0 8.1 15.6 17.5 45.0 30.0 99.6
16 17:00 28.4 12 3.34 -3.7 20 32 1011.9 0 8.1 15.6 17.5 45.0 29.9 99.4
16 16:50 28 11 2.99 -5.2 24 30 1011.9 0 7.4 15.3 16.6 42.7 26.9 88.9
16 16:40 28.1 13 3.56 -2.9 17 24 1011.9 0 8.5 15.9 18.2 46.8 32.0 106.7
16 16:30 28.9 12 3.43 -3.3 24 35 1012 0 8.3 15.6 17.6 45.4 30.5 101.7
16 16:20 27.9 12 3.25 -4.1 19 22 1012.1 0 7.9 15.6 17.4 44.6 29.3 97.1
16 16:10 28.1 13 3.56 -2.9 19 24 1012.3 0 8.5 15.9 18.2 46.8 32.0 106.7
16 16:00 28.2 13 3.57 -2.8 24 32 1012.5 0 8.6 15.9 18.2 46.8 32.0 107.0
16 15:50 27.9 13 3.52 -3 26 32 1012.8 0 8.5 15.9 18.1 46.6 31.7 105.8
16 15:40 28.3 14 3.87 -1.7 30 35 1012.7 0 9.2 16.2 19.0 49.0 34.7 116.4
16 15:30 27.6 14 3.72 -2.3 22 32 1012.8 0 8.9 16.2 18.7 48.3 33.6 112.6
16 15:20 28 14 3.81 -2 24 28 1012.9 0 9.1 16.2 18.9 48.7 34.3 114.9
16 15:10 26.9 14 3.58 -2.8 22 26 1013.2 0 8.6 16.2 18.5 47.6 32.7 109.0
16 15:00 27.6 15 3.99 -1.3 24 35 1013.4 0 9.4 16.5 19.5 50.3 36.1 121.4
16 14:50 28 15 4.08 -1 20 28 1013.7 0 9.6 16.6 19.7 50.8 36.8 123.8
16 14:40 27.1 16 4.14 -0.9 30 35 1013.8 0 9.8 16.8 20.0 51.8 37.8 127.1
16 14:30 26.2 17 4.19 -0.8 22 37 1014 0 9.9 17.0 20.4 52.7 38.7 130.1
16 14:20 25.8 18 4.33 -0.3 20 24 1014.1 0 10.2 17.2 20.9 54.0 40.2 135.4
16 14:10 26.3 18 4.46 0.1 26 30 1014.1 0 10.4 17.3 21.1 54.7 41.2 139.0
16 14:00 26.6 17 4.28 -0.4 24 37 1014.2 0 10.1 17.0 20.6 53.2 39.3 132.5
16 13:50 25.5 19 4.5 0.2 22 28 1014.5 0 10.5 17.5 21.5 55.6 42.0 141.7
16 13:40 26.6 19 4.78 1.1 26 37 1014.5 0 11.1 17.6 22.0 57.0 44.1 149.4
16 13:30 25.5 19 4.5 0.2 26 43 1014.8 0 10.5 17.5 21.5 55.6 42.0 141.8
16 13:20 25.2 20 4.66 0.7 35 39 1014.9 0 10.9 17.8 22.0 57.1 43.7 147.8
16 13:10 25.3 20 4.68 0.7 28 33 1015 0 10.9 17.8 22.1 57.2 43.9 148.3
16 13:00 24.2 21 4.62 0.5 28 37 1015.3 0 10.8 17.9 22.2 57.5 43.9 148.2
16 12:50 24.8 21 4.78 1 28 33 1015.3 0 11.1 18.0 22.5 58.3 45.1 152.7
16 12:40 24.2 21 4.62 0.5 30 32 1015.4 0 10.8 17.9 22.2 57.5 43.9 148.2
16 12:30 24.2 22 4.84 1.2 30 41 1015.2 0 11.3 18.2 22.8 59.2 46.0 155.9
16 12:20 24.1 22 4.81 1.1 30 37 1015.3 0 11.2 18.2 22.8 59.1 45.8 155.0
16 12:10 24.3 21 4.65 0.6 20 24 1015.6 0 10.9 17.9 22.3 57.7 44.1 149.1
16 12:00 24 22 4.79 1 26 41 1015.6 0 11.2 18.2 22.8 59.0 45.7 154.5
16 11:50 24.2 22 4.84 1.2 30 37 1015.8 0 11.3 18.2 22.9 59.3 46.1 156.0
16 11:40 24.2 22 4.84 1.2 20 24 1015.9 0 11.3 18.2 22.9 59.3 46.1 156.0
16 11:30 23.5 22 4.65 0.6 28 37 1015.9 0 10.9 18.1 22.5 58.2 44.5 150.5
16 11:20 23.9 22 4.76 0.9 26 30 1015.8 0 11.1 18.2 22.7 58.8 45.4 153.7
16 11:10 23.5 23 4.86 1.2 32 39 1015.7 0 11.4 18.4 23.1 59.9 46.6 158.0
16 11:00 23.8 23 4.95 1.4 28 41 1015.7 0 11.5 18.4 23.3 60.4 47.4 160.6
16 10:50 24.3 22 4.87 1.2 26 32 1015.8 0 11.3 18.2 22.9 59.4 46.3 156.8
16 10:40 23.4 23 4.84 1.1 26 32 1015.6 0 11.3 18.3 23.1 59.8 46.5 157.4
16 10:30 22.3 24 4.74 0.8 30 41 1015.5 0 11.1 18.4 23.1 59.8 46.1 155.9
16 10:20 22.6 24 4.82 1 32 39 1015.5 0 11.3 18.5 23.2 60.2 46.7 158.2
16 10:10 22.3 23 4.54 0.2 30 35 1015.3 0 10.7 18.2 22.4 58.1 44.1 148.7
16 10:00 22.3 24 4.74 0.8 28 39 1015.5 0 11.1 18.4 23.1 59.8 46.1 155.9
16 09:50 22.2 23 4.52 0.1 32 37 1015.6 0 10.7 18.2 22.4 58.0 43.9 148.2
16 09:40 22.2 23 4.52 0.1 28 33 1015.6 0 10.7 18.2 22.4 58.0 43.9 148.2
16 09:30 21.5 24 4.53 0.1 32 41 1015.6 0 10.7 18.3 22.6 58.6 44.4 149.8
16 09:20 21.4 24 4.5 0 32 41 1015.4 0 10.7 18.3 22.6 58.4 44.1 148.9
16 09:10 21.3 23 4.29 -0.6 26 30 1015.7 0 10.2 18.1 21.9 56.8 42.1 141.6
16 09:00 21.5 22 4.15 -1.1 26 35 1016.1 0 9.9 17.9 21.5 55.5 40.6 136.3
16 08:50 21.5 22 4.15 -1.1 28 35 1016.1 0 9.9 17.9 21.5 55.5 40.6 136.3
16 08:40 21.3 22 4.1 -1.3 33 37 1015.9 0 9.8 17.8 21.4 55.2 40.2 134.8
16 08:30 21.7 21 4.01 -1.6 28 37 1015.6 0 9.6 17.6 21.0 54.2 39.1 131.0
16 08:20 21.7 21 4.01 -1.6 33 41 1015.3 0 9.6 17.6 21.0 54.2 39.0 130.9
16 08:10 21.7 21 4.01 -1.6 26 32 1014.8 0 9.6 17.6 21.0 54.2 39.0 130.9
16 08:00 21.9 21 4.05 -1.4 30 39 1014.4 0 9.7 17.6 21.0 54.4 39.3 131.9
16 07:50 21.6 22 4.17 -1 28 35 1014.5 0 10.0 17.8 21.5 55.5 40.7 136.6
16 07:40 21.4 23 4.31 -0.6 30 41 1014.3 0 10.3 18.0 21.9 56.8 42.2 141.9
16 07:30 21.4 23 4.31 -0.6 26 37 1014.1 0 10.3 18.0 21.9 56.8 42.1 141.9
16 07:20 21.4 24 4.5 0 20 24 1014.2 0 10.7 18.3 22.5 58.3 44.1 148.7
16 07:10 21.6 24 4.55 0.2 22 28 1013.9 0 10.8 18.3 22.6 58.6 44.5 150.1
16 07:00 21.7 25 4.77 0.8 26 41 1013.7 0 11.2 18.5 23.3 60.3 46.7 157.8
16 06:50 21.6 25 4.74 0.8 32 35 1013.6 0 11.2 18.5 23.2 60.1 46.4 156.9
16 06:40 21.7 25 4.77 0.8 32 37 1013.3 0 11.2 18.5 23.2 60.3 46.6 157.8
16 06:30 21.9 25 4.82 1 28 41 1013.3 0 11.3 18.5 23.3 60.6 47.0 159.2
16 06:20 22 25 4.85 1.1 32 35 1013 0 11.4 18.5 23.4 60.7 47.3 160.0
16 06:10 22 26 5.05 1.6 35 43 1012.9 0 11.8 18.8 24.0 62.4 49.3 167.3
16 06:00 22.2 27 5.3 2.3 30 41 1012.9 0 12.3 19.1 24.7 64.3 51.8 176.0
16 05:50 22.3 28 5.53 2.9 24 30 1012.8 0 12.8 19.3 25.4 66.2 54.1 184.2
16 05:40 22.4 29 5.76 3.5 26 30 1012.6 0 13.3 19.6 26.1 68.0 56.5 192.5
16 05:30 22.6 30 6.03 4.2 28 41 1012.5 0 13.8 19.9 26.9 70.2 59.2 202.1
16 05:20 22.6 31 6.23 4.6 24 30 1012.4 0 14.2 20.2 27.6 71.9 61.3 209.6
16 05:10 22.1 31 6.05 4.2 22 24 1012.1 0 13.9 20.0 27.1 70.8 59.8 204.0
16 04:50 22.3 31 6.12 4.4 20 24 1011.6 0 14.0 20.1 27.3 71.2 60.3 206.0
16 04:40 22.2 31 6.09 4.3 19 24 1011.6 0 13.9 20.1 27.2 71.0 60.1 205.1
16 04:30 22.4 31 6.16 4.5 20 28 1011.3 0 14.1 20.1 27.4 71.4 60.7 207.2
16 04:20 22.4 30 5.96 4 17 22 1011.4 0 13.7 19.8 26.7 69.7 58.5 199.7
16 04:10 22.5 30 5.99 4.1 22 24 1011.2 0 13.7 19.9 26.8 69.8 58.8 200.6
16 04:00 22.6 30 6.03 4.2 19 28 1011.2 0 13.8 19.9 26.9 70.1 59.1 201.8
16 03:50 22.6 29 5.83 3.7 17 20 1011.1 0 13.4 19.6 26.2 68.4 57.0 194.4
16 03:40 22.5 29 5.79 3.6 15 17 1010.9 0 13.3 19.6 26.1 68.1 56.6 193.1
16 03:30 22.6 28 5.62 3.2 19 26 1010.7 0 13.0 19.3 25.6 66.6 54.8 186.5
16 03:20 22.8 27 5.49 2.8 22 28 1010.9 0 12.7 19.1 25.1 65.3 53.3 181.3
16 03:10 22.7 26 5.25 2.2 22 26 1010.6 0 12.2 18.8 24.4 63.4 50.9 172.8
16 03:00 22.9 26 5.31 2.4 20 24 1010.6 0 12.3 18.9 24.5 63.7 51.4 174.5
16 02:50 23.2 26 5.4 2.7 17 22 1010.6 0 12.5 18.9 24.7 64.2 52.1 177.2
16 02:40 23.3 26 5.44 2.7 20 24 1010.7 0 12.6 19.0 24.8 64.5 52.5 178.4
16 02:30 23.2 25 5.2 2.1 20 26 1010.8 0 12.1 18.7 24.1 62.6 50.1 170.0
16 02:20 23 26 5.34 2.5 19 24 1010.9 0 12.4 18.9 24.6 63.9 51.6 175.5
16 02:10 23 26 5.34 2.5 19 22 1010.8 0 12.4 18.9 24.6 63.9 51.6 175.4
16 02:00 23 26 5.34 2.5 19 24 1010.7 0 12.4 18.9 24.6 63.9 51.6 175.4
16 01:50 23.1 26 5.37 2.6 19 20 1010.8 0 12.4 18.9 24.6 64.1 51.9 176.3
16 01:40 23 26 5.34 2.5 15 17 1010.9 0 12.4 18.9 24.6 63.9 51.6 175.5
16 01:20 23 27 5.55 3 11 15 1011.1 0 12.8 19.2 25.2 65.7 53.8 183.1

Last Refresh: 16-Jan-2021 18:19:00

Most of the information presented on this site is sourced from the Bureau of Meteorology.  Copyright in all material sourced from the Bureau of Meteorology resides with the Commonwealth of Australia.